sensor_id;sensor_type;location;lat;lon;timestamp;P1;durP1;ratioP1;P2;durP2;ratioP2
26622;SDS011;14254;50.968;5.366;2022-07-10T00:00:24;3.75;;;2.20;;
26622;SDS011;14254;50.968;5.366;2022-07-10T00:02:51;11.23;;;2.75;;
26622;SDS011;14254;50.968;5.366;2022-07-10T00:05:17;6.25;;;2.85;;
26622;SDS011;14254;50.968;5.366;2022-07-10T00:07:44;9.40;;;2.80;;
26622;SDS011;14254;50.968;5.366;2022-07-10T00:10:10;8.77;;;2.88;;
26622;SDS011;14254;50.968;5.366;2022-07-10T00:12:36;9.02;;;2.60;;
26622;SDS011;14254;50.968;5.366;2022-07-10T00:15:05;7.68;;;2.58;;
26622;SDS011;14254;50.968;5.366;2022-07-10T00:17:32;7.80;;;2.78;;
26622;SDS011;14254;50.968;5.366;2022-07-10T00:19:58;6.32;;;2.58;;
26622;SDS011;14254;50.968;5.366;2022-07-10T00:22:24;9.75;;;2.83;;
26622;SDS011;14254;50.968;5.366;2022-07-10T00:24:50;10.68;;;2.65;;
26622;SDS011;14254;50.968;5.366;2022-07-10T00:27:16;10.70;;;3.70;;
26622;SDS011;14254;50.968;5.366;2022-07-10T00:29:42;6.63;;;2.65;;
26622;SDS011;14254;50.968;5.366;2022-07-10T00:32:08;9.38;;;3.30;;
26622;SDS011;14254;50.968;5.366;2022-07-10T00:34:35;8.88;;;3.45;;
26622;SDS011;14254;50.968;5.366;2022-07-10T00:37:01;9.95;;;3.53;;
26622;SDS011;14254;50.968;5.366;2022-07-10T00:39:27;13.07;;;2.90;;
26622;SDS011;14254;50.968;5.366;2022-07-10T00:41:53;7.40;;;2.60;;
26622;SDS011;14254;50.968;5.366;2022-07-10T00:44:19;6.60;;;2.70;;
26622;SDS011;14254;50.968;5.366;2022-07-10T00:46:44;7.72;;;3.10;;
26622;SDS011;14254;50.968;5.366;2022-07-10T00:49:11;5.78;;;2.75;;
26622;SDS011;14254;50.968;5.366;2022-07-10T00:51:37;9.23;;;2.90;;
26622;SDS011;14254;50.968;5.366;2022-07-10T00:54:04;8.15;;;3.28;;
26622;SDS011;14254;50.968;5.366;2022-07-10T00:56:30;8.13;;;3.08;;
26622;SDS011;14254;50.968;5.366;2022-07-10T00:58:56;7.28;;;2.92;;
26622;SDS011;14254;50.968;5.366;2022-07-10T01:01:22;7.15;;;2.90;;
26622;SDS011;14254;50.968;5.366;2022-07-10T01:03:49;8.55;;;2.80;;
26622;SDS011;14254;50.968;5.366;2022-07-10T01:06:15;8.55;;;3.20;;
26622;SDS011;14254;50.968;5.366;2022-07-10T01:08:42;9.80;;;2.95;;
26622;SDS011;14254;50.968;5.366;2022-07-10T01:11:09;8.95;;;3.45;;
26622;SDS011;14254;50.968;5.366;2022-07-10T01:13:35;9.57;;;3.10;;
26622;SDS011;14254;50.968;5.366;2022-07-10T01:16:02;8.68;;;3.30;;
26622;SDS011;14254;50.968;5.366;2022-07-10T01:18:28;10.57;;;2.78;;
26622;SDS011;14254;50.968;5.366;2022-07-10T01:20:57;8.10;;;3.88;;
26622;SDS011;14254;50.968;5.366;2022-07-10T01:23:23;8.93;;;3.28;;
26622;SDS011;14254;50.968;5.366;2022-07-10T01:25:49;10.00;;;3.53;;
26622;SDS011;14254;50.968;5.366;2022-07-10T01:28:15;9.25;;;3.20;;
26622;SDS011;14254;50.968;5.366;2022-07-10T01:30:41;10.63;;;3.78;;
26622;SDS011;14254;50.968;5.366;2022-07-10T01:33:07;9.30;;;3.47;;
26622;SDS011;14254;50.968;5.366;2022-07-10T01:35:33;8.45;;;3.42;;
26622;SDS011;14254;50.968;5.366;2022-07-10T01:37:59;11.68;;;3.70;;
26622;SDS011;14254;50.968;5.366;2022-07-10T01:40:24;9.07;;;3.67;;
26622;SDS011;14254;50.968;5.366;2022-07-10T01:42:50;10.27;;;3.40;;
26622;SDS011;14254;50.968;5.366;2022-07-10T01:45:16;10.98;;;3.50;;
26622;SDS011;14254;50.968;5.366;2022-07-10T01:47:42;10.10;;;3.45;;
26622;SDS011;14254;50.968;5.366;2022-07-10T01:50:09;9.60;;;4.15;;
26622;SDS011;14254;50.968;5.366;2022-07-10T01:52:34;9.02;;;3.75;;
26622;SDS011;14254;50.968;5.366;2022-07-10T01:55:01;8.90;;;3.25;;
26622;SDS011;14254;50.968;5.366;2022-07-10T01:57:27;7.47;;;3.83;;
26622;SDS011;14254;50.968;5.366;2022-07-10T01:59:53;13.52;;;4.20;;
26622;SDS011;14254;50.968;5.366;2022-07-10T02:02:18;9.02;;;4.30;;
26622;SDS011;14254;50.968;5.366;2022-07-10T02:04:44;7.30;;;3.33;;
26622;SDS011;14254;50.968;5.366;2022-07-10T02:07:11;8.57;;;3.10;;
26622;SDS011;14254;50.968;5.366;2022-07-10T02:09:38;5.57;;;3.20;;
26622;SDS011;14254;50.968;5.366;2022-07-10T02:12:04;7.70;;;3.72;;
26622;SDS011;14254;50.968;5.366;2022-07-10T02:14:31;7.03;;;3.63;;
26622;SDS011;14254;50.968;5.366;2022-07-10T02:16:56;7.00;;;3.80;;
26622;SDS011;14254;50.968;5.366;2022-07-10T02:19:22;8.18;;;3.55;;
26622;SDS011;14254;50.968;5.366;2022-07-10T02:21:48;6.43;;;3.45;;
26622;SDS011;14254;50.968;5.366;2022-07-10T02:24:14;5.68;;;3.17;;
26622;SDS011;14254;50.968;5.366;2022-07-10T02:26:40;11.57;;;4.30;;
26622;SDS011;14254;50.968;5.366;2022-07-10T02:29:05;7.65;;;3.80;;
26622;SDS011;14254;50.968;5.366;2022-07-10T02:31:31;11.63;;;4.22;;
26622;SDS011;14254;50.968;5.366;2022-07-10T02:33:59;10.73;;;3.75;;
26622;SDS011;14254;50.968;5.366;2022-07-10T02:36:25;6.75;;;3.75;;
26622;SDS011;14254;50.968;5.366;2022-07-10T02:38:51;10.77;;;3.80;;
26622;SDS011;14254;50.968;5.366;2022-07-10T02:41:16;8.98;;;4.22;;
26622;SDS011;14254;50.968;5.366;2022-07-10T02:43:42;12.25;;;4.35;;
26622;SDS011;14254;50.968;5.366;2022-07-10T02:46:08;10.43;;;4.43;;
26622;SDS011;14254;50.968;5.366;2022-07-10T02:48:33;7.75;;;4.18;;
26622;SDS011;14254;50.968;5.366;2022-07-10T02:50:59;10.32;;;3.88;;
26622;SDS011;14254;50.968;5.366;2022-07-10T02:53:25;10.77;;;4.25;;
26622;SDS011;14254;50.968;5.366;2022-07-10T02:55:50;8.98;;;4.78;;
26622;SDS011;14254;50.968;5.366;2022-07-10T02:58:16;7.68;;;4.03;;
26622;SDS011;14254;50.968;5.366;2022-07-10T03:00:42;10.95;;;3.80;;
26622;SDS011;14254;50.968;5.366;2022-07-10T03:03:08;9.10;;;4.05;;
26622;SDS011;14254;50.968;5.366;2022-07-10T03:05:34;9.52;;;3.83;;
26622;SDS011;14254;50.968;5.366;2022-07-10T03:08:00;8.98;;;3.83;;
26622;SDS011;14254;50.968;5.366;2022-07-10T03:10:25;8.73;;;3.78;;
26622;SDS011;14254;50.968;5.366;2022-07-10T03:12:51;9.25;;;4.20;;
26622;SDS011;14254;50.968;5.366;2022-07-10T03:15:17;10.90;;;4.43;;
26622;SDS011;14254;50.968;5.366;2022-07-10T03:17:42;6.68;;;4.25;;
26622;SDS011;14254;50.968;5.366;2022-07-10T03:20:08;7.38;;;4.28;;
26622;SDS011;14254;50.968;5.366;2022-07-10T03:22:35;7.97;;;4.25;;
26622;SDS011;14254;50.968;5.366;2022-07-10T03:25:02;8.82;;;3.78;;
26622;SDS011;14254;50.968;5.366;2022-07-10T03:27:28;10.90;;;4.20;;
26622;SDS011;14254;50.968;5.366;2022-07-10T03:29:54;9.30;;;3.80;;
26622;SDS011;14254;50.968;5.366;2022-07-10T03:32:19;9.63;;;3.33;;
26622;SDS011;14254;50.968;5.366;2022-07-10T03:34:45;7.82;;;3.70;;
26622;SDS011;14254;50.968;5.366;2022-07-10T03:37:10;7.82;;;3.80;;
26622;SDS011;14254;50.968;5.366;2022-07-10T03:39:36;9.52;;;4.03;;
26622;SDS011;14254;50.968;5.366;2022-07-10T03:42:02;7.10;;;3.72;;
26622;SDS011;14254;50.968;5.366;2022-07-10T03:44:28;9.10;;;3.65;;
26622;SDS011;14254;50.968;5.366;2022-07-10T03:46:53;7.75;;;4.20;;
26622;SDS011;14254;50.968;5.366;2022-07-10T03:49:19;9.93;;;4.10;;
26622;SDS011;14254;50.968;5.366;2022-07-10T03:51:45;11.73;;;4.53;;
26622;SDS011;14254;50.968;5.366;2022-07-10T03:54:10;9.60;;;4.20;;
26622;SDS011;14254;50.968;5.366;2022-07-10T03:56:36;8.73;;;4.05;;
26622;SDS011;14254;50.968;5.366;2022-07-10T03:59:20;11.23;;;4.38;;
26622;SDS011;14254;50.968;5.366;2022-07-10T04:01:45;7.43;;;3.90;;
26622;SDS011;14254;50.968;5.366;2022-07-10T04:04:11;8.32;;;4.13;;
26622;SDS011;14254;50.968;5.366;2022-07-10T04:06:37;10.55;;;4.53;;
26622;SDS011;14254;50.968;5.366;2022-07-10T04:09:04;14.70;;;4.68;;
26622;SDS011;14254;50.968;5.366;2022-07-10T04:11:30;8.85;;;4.82;;
26622;SDS011;14254;50.968;5.366;2022-07-10T04:13:56;12.93;;;4.30;;
26622;SDS011;14254;50.968;5.366;2022-07-10T04:16:22;8.68;;;4.47;;
26622;SDS011;14254;50.968;5.366;2022-07-10T04:18:47;10.88;;;4.55;;
26622;SDS011;14254;50.968;5.366;2022-07-10T04:21:13;10.10;;;4.53;;
26622;SDS011;14254;50.968;5.366;2022-07-10T04:23:39;9.25;;;4.05;;
26622;SDS011;14254;50.968;5.366;2022-07-10T04:26:05;10.70;;;4.28;;
26622;SDS011;14254;50.968;5.366;2022-07-10T04:28:30;9.93;;;4.28;;
26622;SDS011;14254;50.968;5.366;2022-07-10T04:30:56;8.40;;;3.92;;
26622;SDS011;14254;50.968;5.366;2022-07-10T04:33:22;13.82;;;4.70;;
26622;SDS011;14254;50.968;5.366;2022-07-10T04:35:48;12.93;;;4.60;;
26622;SDS011;14254;50.968;5.366;2022-07-10T04:38:14;7.28;;;3.78;;
26622;SDS011;14254;50.968;5.366;2022-07-10T04:40:40;4.85;;;4.28;;
26622;SDS011;14254;50.968;5.366;2022-07-10T04:43:05;6.43;;;4.03;;
26622;SDS011;14254;50.968;5.366;2022-07-10T04:45:31;6.57;;;3.92;;
26622;SDS011;14254;50.968;5.366;2022-07-10T04:47:56;6.38;;;4.85;;
26622;SDS011;14254;50.968;5.366;2022-07-10T04:50:22;8.18;;;4.07;;
26622;SDS011;14254;50.968;5.366;2022-07-10T04:52:48;7.10;;;4.50;;
26622;SDS011;14254;50.968;5.366;2022-07-10T04:55:14;9.27;;;4.63;;
26622;SDS011;14254;50.968;5.366;2022-07-10T04:57:39;9.95;;;4.45;;
26622;SDS011;14254;50.968;5.366;2022-07-10T05:00:09;10.35;;;4.80;;
26622;SDS011;14254;50.968;5.366;2022-07-10T05:02:35;14.25;;;5.43;;
26622;SDS011;14254;50.968;5.366;2022-07-10T05:05:01;8.85;;;4.70;;
26622;SDS011;14254;50.968;5.366;2022-07-10T05:07:27;9.73;;;4.70;;
26622;SDS011;14254;50.968;5.366;2022-07-10T05:09:53;12.77;;;4.55;;
26622;SDS011;14254;50.968;5.366;2022-07-10T05:12:19;8.90;;;4.22;;
26622;SDS011;14254;50.968;5.366;2022-07-10T05:14:44;6.50;;;4.13;;
26622;SDS011;14254;50.968;5.366;2022-07-10T05:17:10;9.25;;;4.38;;
26622;SDS011;14254;50.968;5.366;2022-07-10T05:19:36;12.95;;;4.32;;
26622;SDS011;14254;50.968;5.366;2022-07-10T05:22:01;9.45;;;3.95;;
26622;SDS011;14254;50.968;5.366;2022-07-10T05:24:27;10.48;;;4.30;;
26622;SDS011;14254;50.968;5.366;2022-07-10T05:26:53;11.02;;;4.50;;
26622;SDS011;14254;50.968;5.366;2022-07-10T05:29:18;12.20;;;4.53;;
26622;SDS011;14254;50.968;5.366;2022-07-10T05:31:44;9.68;;;4.38;;
26622;SDS011;14254;50.968;5.366;2022-07-10T05:34:10;7.97;;;4.00;;
26622;SDS011;14254;50.968;5.366;2022-07-10T05:36:35;10.77;;;3.92;;
26622;SDS011;14254;50.968;5.366;2022-07-10T05:39:01;11.68;;;3.80;;
26622;SDS011;14254;50.968;5.366;2022-07-10T05:41:27;8.65;;;4.30;;
26622;SDS011;14254;50.968;5.366;2022-07-10T05:43:53;10.13;;;4.03;;
26622;SDS011;14254;50.968;5.366;2022-07-10T05:46:18;7.30;;;3.95;;
26622;SDS011;14254;50.968;5.366;2022-07-10T05:48:44;8.18;;;3.72;;
26622;SDS011;14254;50.968;5.366;2022-07-10T05:51:10;9.10;;;3.53;;
26622;SDS011;14254;50.968;5.366;2022-07-10T05:53:36;9.63;;;4.47;;
26622;SDS011;14254;50.968;5.366;2022-07-10T05:56:02;7.90;;;3.85;;
26622;SDS011;14254;50.968;5.366;2022-07-10T05:58:28;9.90;;;3.80;;
26622;SDS011;14254;50.968;5.366;2022-07-10T06:00:54;7.07;;;3.25;;
26622;SDS011;14254;50.968;5.366;2022-07-10T06:03:20;11.05;;;3.28;;
26622;SDS011;14254;50.968;5.366;2022-07-10T06:05:46;9.95;;;4.32;;
26622;SDS011;14254;50.968;5.366;2022-07-10T06:08:12;13.20;;;3.38;;
26622;SDS011;14254;50.968;5.366;2022-07-10T06:10:38;8.45;;;3.13;;
26622;SDS011;14254;50.968;5.366;2022-07-10T06:13:05;8.23;;;2.95;;
26622;SDS011;14254;50.968;5.366;2022-07-10T06:15:31;15.70;;;4.13;;
26622;SDS011;14254;50.968;5.366;2022-07-10T06:17:57;12.98;;;3.72;;
26622;SDS011;14254;50.968;5.366;2022-07-10T06:20:24;6.40;;;2.65;;
26622;SDS011;14254;50.968;5.366;2022-07-10T06:22:50;7.82;;;2.85;;
26622;SDS011;14254;50.968;5.366;2022-07-10T06:25:15;5.10;;;2.20;;
26622;SDS011;14254;50.968;5.366;2022-07-10T06:27:41;6.72;;;2.97;;
26622;SDS011;14254;50.968;5.366;2022-07-10T06:30:07;8.43;;;3.22;;
26622;SDS011;14254;50.968;5.366;2022-07-10T06:32:33;12.02;;;3.00;;
26622;SDS011;14254;50.968;5.366;2022-07-10T06:34:58;8.32;;;3.13;;
26622;SDS011;14254;50.968;5.366;2022-07-10T06:37:24;7.90;;;2.80;;
26622;SDS011;14254;50.968;5.366;2022-07-10T06:39:50;7.38;;;2.45;;
26622;SDS011;14254;50.968;5.366;2022-07-10T06:42:16;8.80;;;3.13;;
26622;SDS011;14254;50.968;5.366;2022-07-10T06:44:42;7.90;;;2.65;;
26622;SDS011;14254;50.968;5.366;2022-07-10T06:47:08;6.63;;;2.80;;
26622;SDS011;14254;50.968;5.366;2022-07-10T06:49:53;11.02;;;3.05;;
26622;SDS011;14254;50.968;5.366;2022-07-10T06:52:19;7.28;;;2.40;;
26622;SDS011;14254;50.968;5.366;2022-07-10T06:54:46;6.80;;;2.88;;
26622;SDS011;14254;50.968;5.366;2022-07-10T06:57:12;4.65;;;1.90;;
26622;SDS011;14254;50.968;5.366;2022-07-10T06:59:38;10.35;;;2.65;;
26622;SDS011;14254;50.968;5.366;2022-07-10T07:02:03;6.30;;;2.15;;
26622;SDS011;14254;50.968;5.366;2022-07-10T07:04:29;7.00;;;1.98;;
26622;SDS011;14254;50.968;5.366;2022-07-10T07:06:55;9.45;;;2.72;;
26622;SDS011;14254;50.968;5.366;2022-07-10T07:09:21;11.25;;;2.40;;
26622;SDS011;14254;50.968;5.366;2022-07-10T07:11:47;5.80;;;2.70;;
26622;SDS011;14254;50.968;5.366;2022-07-10T07:14:13;6.30;;;2.05;;
26622;SDS011;14254;50.968;5.366;2022-07-10T07:16:39;9.88;;;2.35;;
26622;SDS011;14254;50.968;5.366;2022-07-10T07:19:08;8.68;;;1.85;;
26622;SDS011;14254;50.968;5.366;2022-07-10T07:21:42;5.90;;;2.03;;
26622;SDS011;14254;50.968;5.366;2022-07-10T07:24:27;12.02;;;2.60;;
26622;SDS011;14254;50.968;5.366;2022-07-10T07:26:53;6.25;;;2.00;;
26622;SDS011;14254;50.968;5.366;2022-07-10T07:29:19;7.47;;;2.35;;
26622;SDS011;14254;50.968;5.366;2022-07-10T07:31:44;6.55;;;1.85;;
26622;SDS011;14254;50.968;5.366;2022-07-10T07:34:10;4.00;;;1.58;;
26622;SDS011;14254;50.968;5.366;2022-07-10T07:36:36;7.80;;;1.80;;
26622;SDS011;14254;50.968;5.366;2022-07-10T07:39:03;9.73;;;2.25;;
26622;SDS011;14254;50.968;5.366;2022-07-10T07:41:29;6.20;;;1.80;;
26622;SDS011;14254;50.968;5.366;2022-07-10T07:43:54;6.95;;;1.80;;
26622;SDS011;14254;50.968;5.366;2022-07-10T07:46:20;8.93;;;1.92;;
26622;SDS011;14254;50.968;5.366;2022-07-10T07:48:46;9.35;;;2.40;;
26622;SDS011;14254;50.968;5.366;2022-07-10T07:51:12;6.47;;;1.95;;
26622;SDS011;14254;50.968;5.366;2022-07-10T07:53:38;4.93;;;1.77;;
26622;SDS011;14254;50.968;5.366;2022-07-10T07:56:04;7.28;;;1.80;;
26622;SDS011;14254;50.968;5.366;2022-07-10T07:58:29;5.38;;;1.65;;
26622;SDS011;14254;50.968;5.366;2022-07-10T08:00:55;7.10;;;2.03;;
26622;SDS011;14254;50.968;5.366;2022-07-10T08:03:21;4.90;;;1.30;;
26622;SDS011;14254;50.968;5.366;2022-07-10T08:05:47;4.65;;;1.38;;
26622;SDS011;14254;50.968;5.366;2022-07-10T08:08:14;4.72;;;1.58;;
26622;SDS011;14254;50.968;5.366;2022-07-10T08:10:40;6.65;;;1.95;;
26622;SDS011;14254;50.968;5.366;2022-07-10T08:13:06;5.40;;;1.63;;
26622;SDS011;14254;50.968;5.366;2022-07-10T08:15:32;4.93;;;1.50;;
26622;SDS011;14254;50.968;5.366;2022-07-10T08:17:59;6.70;;;1.75;;
26622;SDS011;14254;50.968;5.366;2022-07-10T08:20:27;5.15;;;1.85;;
26622;SDS011;14254;50.968;5.366;2022-07-10T08:22:53;4.97;;;1.55;;
26622;SDS011;14254;50.968;5.366;2022-07-10T08:25:19;7.45;;;1.77;;
26622;SDS011;14254;50.968;5.366;2022-07-10T08:27:45;8.15;;;2.13;;
26622;SDS011;14254;50.968;5.366;2022-07-10T08:30:11;10.63;;;1.90;;
26622;SDS011;14254;50.968;5.366;2022-07-10T08:32:37;5.43;;;2.15;;
26622;SDS011;14254;50.968;5.366;2022-07-10T08:35:04;5.75;;;1.67;;
26622;SDS011;14254;50.968;5.366;2022-07-10T08:37:38;6.47;;;1.45;;
26622;SDS011;14254;50.968;5.366;2022-07-10T08:40:08;6.53;;;1.70;;
26622;SDS011;14254;50.968;5.366;2022-07-10T08:42:35;5.32;;;1.30;;
26622;SDS011;14254;50.968;5.366;2022-07-10T08:45:01;5.97;;;1.50;;
26622;SDS011;14254;50.968;5.366;2022-07-10T08:47:27;7.00;;;1.65;;
26622;SDS011;14254;50.968;5.366;2022-07-10T08:49:56;8.32;;;2.17;;
26622;SDS011;14254;50.968;5.366;2022-07-10T08:54:51;4.45;;;1.58;;
26622;SDS011;14254;50.968;5.366;2022-07-10T08:57:17;11.80;;;1.75;;
26622;SDS011;14254;50.968;5.366;2022-07-10T08:59:44;6.60;;;1.77;;
26622;SDS011;14254;50.968;5.366;2022-07-10T09:02:10;4.50;;;1.50;;
26622;SDS011;14254;50.968;5.366;2022-07-10T09:04:36;6.38;;;1.98;;
26622;SDS011;14254;50.968;5.366;2022-07-10T09:07:03;13.82;;;2.78;;
26622;SDS011;14254;50.968;5.366;2022-07-10T09:09:29;6.63;;;1.88;;
26622;SDS011;14254;50.968;5.366;2022-07-10T09:11:55;4.50;;;1.90;;
26622;SDS011;14254;50.968;5.366;2022-07-10T09:14:22;4.82;;;1.70;;
26622;SDS011;14254;50.968;5.366;2022-07-10T09:16:51;5.22;;;1.73;;
26622;SDS011;14254;50.968;5.366;2022-07-10T09:21:52;4.30;;;1.52;;
26622;SDS011;14254;50.968;5.366;2022-07-10T09:24:23;7.07;;;1.90;;
26622;SDS011;14254;50.968;5.366;2022-07-10T09:29:21;6.80;;;1.70;;
26622;SDS011;14254;50.968;5.366;2022-07-10T09:31:50;11.35;;;2.08;;
26622;SDS011;14254;50.968;5.366;2022-07-10T09:34:17;7.00;;;1.60;;
26622;SDS011;14254;50.968;5.366;2022-07-10T09:39:31;5.68;;;1.98;;
26622;SDS011;14254;50.968;5.366;2022-07-10T09:41:58;3.28;;;1.55;;
26622;SDS011;14254;50.968;5.366;2022-07-10T09:44:24;7.43;;;1.85;;
26622;SDS011;14254;50.968;5.366;2022-07-10T09:46:49;6.47;;;1.88;;
26622;SDS011;14254;50.968;5.366;2022-07-10T09:49:15;6.95;;;2.25;;
26622;SDS011;14254;50.968;5.366;2022-07-10T09:51:41;6.18;;;1.75;;
26622;SDS011;14254;50.968;5.366;2022-07-10T09:54:11;5.85;;;1.75;;
26622;SDS011;14254;50.968;5.366;2022-07-10T09:56:41;8.23;;;1.80;;
26622;SDS011;14254;50.968;5.366;2022-07-10T09:59:10;10.82;;;1.50;;
26622;SDS011;14254;50.968;5.366;2022-07-10T10:01:37;2.95;;;1.58;;
26622;SDS011;14254;50.968;5.366;2022-07-10T10:04:12;5.43;;;1.80;;
26622;SDS011;14254;50.968;5.366;2022-07-10T10:06:40;10.07;;;2.05;;
26622;SDS011;14254;50.968;5.366;2022-07-10T10:09:07;4.70;;;1.75;;
26622;SDS011;14254;50.968;5.366;2022-07-10T10:11:40;8.50;;;1.90;;
26622;SDS011;14254;50.968;5.366;2022-07-10T10:14:08;4.30;;;1.65;;
26622;SDS011;14254;50.968;5.366;2022-07-10T10:16:35;7.18;;;2.20;;
26622;SDS011;14254;50.968;5.366;2022-07-10T10:19:02;7.75;;;2.00;;
26622;SDS011;14254;50.968;5.366;2022-07-10T10:22:06;8.23;;;2.10;;
26622;SDS011;14254;50.968;5.366;2022-07-10T10:24:33;4.75;;;1.88;;
26622;SDS011;14254;50.968;5.366;2022-07-10T10:27:00;6.65;;;2.15;;
26622;SDS011;14254;50.968;5.366;2022-07-10T10:29:27;4.18;;;1.92;;
26622;SDS011;14254;50.968;5.366;2022-07-10T10:31:53;7.30;;;2.25;;
26622;SDS011;14254;50.968;5.366;2022-07-10T10:37:33;6.97;;;2.40;;
26622;SDS011;14254;50.968;5.366;2022-07-10T10:40:03;8.95;;;1.90;;
26622;SDS011;14254;50.968;5.366;2022-07-10T10:45:41;13.65;;;2.30;;
26622;SDS011;14254;50.968;5.366;2022-07-10T10:50:37;7.13;;;2.00;;
26622;SDS011;14254;50.968;5.366;2022-07-10T10:53:04;7.13;;;1.95;;
26622;SDS011;14254;50.968;5.366;2022-07-10T10:55:30;6.72;;;1.77;;
26622;SDS011;14254;50.968;5.366;2022-07-10T10:58:11;3.67;;;1.90;;
26622;SDS011;14254;50.968;5.366;2022-07-10T11:00:40;10.95;;;2.58;;
26622;SDS011;14254;50.968;5.366;2022-07-10T11:03:39;8.23;;;2.05;;
26622;SDS011;14254;50.968;5.366;2022-07-10T11:05:58;6.07;;;2.03;;
26622;SDS011;14254;50.968;5.366;2022-07-10T11:08:37;8.80;;;1.60;;
26622;SDS011;14254;50.968;5.366;2022-07-10T11:13:58;13.52;;;2.00;;
26622;SDS011;14254;50.968;5.366;2022-07-10T11:16:24;3.88;;;1.98;;
26622;SDS011;14254;50.968;5.366;2022-07-10T11:18:53;7.28;;;1.95;;
26622;SDS011;14254;50.968;5.366;2022-07-10T11:21:22;10.15;;;2.00;;
26622;SDS011;14254;50.968;5.366;2022-07-10T11:26:46;5.68;;;2.00;;
26622;SDS011;14254;50.968;5.366;2022-07-10T11:29:21;9.05;;;2.40;;
26622;SDS011;14254;50.968;5.366;2022-07-10T11:31:53;7.40;;;2.38;;
26622;SDS011;14254;50.968;5.366;2022-07-10T11:34:19;6.20;;;2.00;;
26622;SDS011;14254;50.968;5.366;2022-07-10T11:36:47;7.03;;;2.03;;
26622;SDS011;14254;50.968;5.366;2022-07-10T11:39:13;6.47;;;2.20;;
26622;SDS011;14254;50.968;5.366;2022-07-10T11:41:42;5.30;;;2.55;;
26622;SDS011;14254;50.968;5.366;2022-07-10T11:44:15;5.20;;;2.05;;
26622;SDS011;14254;50.968;5.366;2022-07-10T11:46:43;7.75;;;2.20;;
26622;SDS011;14254;50.968;5.366;2022-07-10T11:49:10;3.42;;;1.63;;
26622;SDS011;14254;50.968;5.366;2022-07-10T11:51:39;9.52;;;2.20;;
26622;SDS011;14254;50.968;5.366;2022-07-10T11:56:34;7.15;;;2.03;;
26622;SDS011;14254;50.968;5.366;2022-07-10T11:59:02;6.53;;;2.20;;
26622;SDS011;14254;50.968;5.366;2022-07-10T12:01:31;7.20;;;2.65;;
26622;SDS011;14254;50.968;5.366;2022-07-10T12:04:01;5.93;;;2.38;;
26622;SDS011;14254;50.968;5.366;2022-07-10T12:06:33;4.78;;;2.15;;
26622;SDS011;14254;50.968;5.366;2022-07-10T12:09:06;6.25;;;2.15;;
26622;SDS011;14254;50.968;5.366;2022-07-10T12:11:34;5.75;;;2.35;;
26622;SDS011;14254;50.968;5.366;2022-07-10T12:16:39;4.65;;;2.03;;
26622;SDS011;14254;50.968;5.366;2022-07-10T12:19:07;4.68;;;2.00;;
26622;SDS011;14254;50.968;5.366;2022-07-10T12:21:35;6.82;;;2.30;;
26622;SDS011;14254;50.968;5.366;2022-07-10T12:24:01;4.03;;;1.88;;
26622;SDS011;14254;50.968;5.366;2022-07-10T12:26:35;6.13;;;2.55;;
26622;SDS011;14254;50.968;5.366;2022-07-10T12:29:02;6.72;;;2.20;;
26622;SDS011;14254;50.968;5.366;2022-07-10T12:31:30;4.00;;;1.63;;
26622;SDS011;14254;50.968;5.366;2022-07-10T12:33:59;4.78;;;2.15;;
26622;SDS011;14254;50.968;5.366;2022-07-10T12:39:10;7.72;;;2.28;;
26622;SDS011;14254;50.968;5.366;2022-07-10T12:41:53;5.28;;;2.67;;
26622;SDS011;14254;50.968;5.366;2022-07-10T12:44:33;7.45;;;2.78;;
26622;SDS011;14254;50.968;5.366;2022-07-10T12:47:03;4.80;;;2.53;;
26622;SDS011;14254;50.968;5.366;2022-07-10T12:52:29;7.05;;;2.53;;
26622;SDS011;14254;50.968;5.366;2022-07-10T13:00:27;5.95;;;2.00;;
26622;SDS011;14254;50.968;5.366;2022-07-10T13:03:01;4.97;;;1.77;;
26622;SDS011;14254;50.968;5.366;2022-07-10T13:05:30;3.83;;;1.80;;
26622;SDS011;14254;50.968;5.366;2022-07-10T13:08:04;3.55;;;1.80;;
26622;SDS011;14254;50.968;5.366;2022-07-10T13:10:30;4.27;;;2.00;;
26622;SDS011;14254;50.968;5.366;2022-07-10T13:12:56;4.57;;;2.03;;
26622;SDS011;14254;50.968;5.366;2022-07-10T13:15:21;7.32;;;2.00;;
26622;SDS011;14254;50.968;5.366;2022-07-10T13:17:48;3.85;;;1.88;;
26622;SDS011;14254;50.968;5.366;2022-07-10T13:20:14;6.28;;;2.05;;
26622;SDS011;14254;50.968;5.366;2022-07-10T13:22:39;5.35;;;2.03;;
26622;SDS011;14254;50.968;5.366;2022-07-10T13:25:05;3.90;;;1.92;;
26622;SDS011;14254;50.968;5.366;2022-07-10T13:27:31;2.70;;;1.55;;
26622;SDS011;14254;50.968;5.366;2022-07-10T13:29:57;4.93;;;1.77;;
26622;SDS011;14254;50.968;5.366;2022-07-10T13:32:23;4.95;;;1.60;;
26622;SDS011;14254;50.968;5.366;2022-07-10T13:34:48;3.55;;;1.55;;
26622;SDS011;14254;50.968;5.366;2022-07-10T13:37:14;4.10;;;1.60;;
26622;SDS011;14254;50.968;5.366;2022-07-10T13:39:40;5.32;;;1.70;;
26622;SDS011;14254;50.968;5.366;2022-07-10T13:42:05;4.18;;;1.73;;
26622;SDS011;14254;50.968;5.366;2022-07-10T13:44:31;4.75;;;1.80;;
26622;SDS011;14254;50.968;5.366;2022-07-10T13:46:57;5.80;;;2.25;;
26622;SDS011;14254;50.968;5.366;2022-07-10T13:49:22;4.32;;;1.90;;
26622;SDS011;14254;50.968;5.366;2022-07-10T13:51:48;5.80;;;2.00;;
26622;SDS011;14254;50.968;5.366;2022-07-10T13:54:14;6.18;;;1.88;;
26622;SDS011;14254;50.968;5.366;2022-07-10T13:56:39;4.22;;;1.65;;
26622;SDS011;14254;50.968;5.366;2022-07-10T13:59:05;6.80;;;1.65;;
26622;SDS011;14254;50.968;5.366;2022-07-10T14:01:31;5.00;;;1.70;;
26622;SDS011;14254;50.968;5.366;2022-07-10T14:03:57;3.75;;;1.63;;
26622;SDS011;14254;50.968;5.366;2022-07-10T14:06:22;4.18;;;1.42;;
26622;SDS011;14254;50.968;5.366;2022-07-10T14:08:48;2.80;;;1.40;;
26622;SDS011;14254;50.968;5.366;2022-07-10T14:11:14;6.43;;;1.98;;
26622;SDS011;14254;50.968;5.366;2022-07-10T14:13:39;4.28;;;1.75;;
26622;SDS011;14254;50.968;5.366;2022-07-10T14:16:05;3.35;;;1.65;;
26622;SDS011;14254;50.968;5.366;2022-07-10T14:18:31;4.03;;;1.33;;
26622;SDS011;14254;50.968;5.366;2022-07-10T14:21:02;4.47;;;1.40;;
26622;SDS011;14254;50.968;5.366;2022-07-10T14:23:28;4.60;;;1.90;;
26622;SDS011;14254;50.968;5.366;2022-07-10T14:25:54;4.10;;;1.23;;
26622;SDS011;14254;50.968;5.366;2022-07-10T14:28:21;5.60;;;1.90;;
26622;SDS011;14254;50.968;5.366;2022-07-10T14:30:48;3.88;;;1.38;;
26622;SDS011;14254;50.968;5.366;2022-07-10T14:33:14;4.78;;;1.60;;
26622;SDS011;14254;50.968;5.366;2022-07-10T14:35:40;7.18;;;1.42;;
26622;SDS011;14254;50.968;5.366;2022-07-10T14:38:05;5.10;;;1.70;;
26622;SDS011;14254;50.968;5.366;2022-07-10T14:40:31;2.35;;;1.42;;
26622;SDS011;14254;50.968;5.366;2022-07-10T14:42:57;8.90;;;1.67;;
26622;SDS011;14254;50.968;5.366;2022-07-10T14:45:23;4.90;;;1.50;;
26622;SDS011;14254;50.968;5.366;2022-07-10T14:47:49;3.20;;;1.30;;
26622;SDS011;14254;50.968;5.366;2022-07-10T14:50:15;2.30;;;1.30;;
26622;SDS011;14254;50.968;5.366;2022-07-10T14:52:42;3.85;;;1.70;;
26622;SDS011;14254;50.968;5.366;2022-07-10T14:55:08;8.68;;;1.58;;
26622;SDS011;14254;50.968;5.366;2022-07-10T14:57:33;2.97;;;1.60;;
26622;SDS011;14254;50.968;5.366;2022-07-10T14:59:59;6.30;;;1.45;;
26622;SDS011;14254;50.968;5.366;2022-07-10T15:02:25;3.28;;;1.52;;
26622;SDS011;14254;50.968;5.366;2022-07-10T15:04:51;6.45;;;1.73;;
26622;SDS011;14254;50.968;5.366;2022-07-10T15:07:16;4.53;;;1.88;;
26622;SDS011;14254;50.968;5.366;2022-07-10T15:09:43;4.18;;;1.80;;
26622;SDS011;14254;50.968;5.366;2022-07-10T15:12:09;5.13;;;1.70;;
26622;SDS011;14254;50.968;5.366;2022-07-10T15:14:35;4.13;;;1.90;;
26622;SDS011;14254;50.968;5.366;2022-07-10T15:17:00;6.88;;;1.83;;
26622;SDS011;14254;50.968;5.366;2022-07-10T15:19:26;6.57;;;1.90;;
26622;SDS011;14254;50.968;5.366;2022-07-10T15:21:52;3.55;;;1.35;;
26622;SDS011;14254;50.968;5.366;2022-07-10T15:24:17;7.28;;;2.05;;